sensor_id;sensor_type;location;lat;lon;timestamp;pressure;altitude;pressure_sealevel;temperature;humidity
33781;BME280;20097;50.832;19.100;2023-05-12T00:03:54;98519.13;;;9.65;79.39
33781;BME280;20097;50.832;19.100;2023-05-12T00:08:59;98518.63;;;9.62;79.17
33781;BME280;20097;50.832;19.100;2023-05-12T00:14:05;98522.22;;;9.61;79.82
33781;BME280;20097;50.832;19.100;2023-05-12T00:19:09;98519.44;;;9.54;79.10
33781;BME280;20097;50.832;19.100;2023-05-12T00:24:13;98522.06;;;9.54;78.95
33781;BME280;20097;50.832;19.100;2023-05-12T00:29:19;98521.56;;;9.51;80.04
33781;BME280;20097;50.832;19.100;2023-05-12T00:34:23;98526.59;;;9.44;80.14
33781;BME280;20097;50.832;19.100;2023-05-12T00:39:27;98520.38;;;9.37;80.31
33781;BME280;20097;50.832;19.100;2023-05-12T00:44:33;98519.56;;;9.29;81.11
33781;BME280;20097;50.832;19.100;2023-05-12T00:49:38;98518.41;;;9.23;81.42
33781;BME280;20097;50.832;19.100;2023-05-12T00:54:44;98521.19;;;9.22;81.38
33781;BME280;20097;50.832;19.100;2023-05-12T00:59:50;98518.06;;;9.18;82.01
33781;BME280;20097;50.832;19.100;2023-05-12T01:04:54;98518.56;;;9.14;82.21
33781;BME280;20097;50.832;19.100;2023-05-12T01:09:59;98522.78;;;9.15;81.64
33781;BME280;20097;50.832;19.100;2023-05-12T01:15:09;98517.72;;;9.13;81.51
33781;BME280;20097;50.832;19.100;2023-05-12T01:20:16;98524.72;;;9.13;81.52
33781;BME280;20097;50.832;19.100;2023-05-12T01:25:22;98526.50;;;9.12;81.64
33781;BME280;20097;50.832;19.100;2023-05-12T01:30:29;98521.13;;;9.06;81.98
33781;BME280;20097;50.832;19.100;2023-05-12T01:35:35;98518.66;;;9.04;82.48
33781;BME280;20097;50.832;19.100;2023-05-12T01:40:40;98520.97;;;8.99;83.36
33781;BME280;20097;50.832;19.100;2023-05-12T01:45:45;98535.25;;;8.95;83.86
33781;BME280;20097;50.832;19.100;2023-05-12T01:50:49;98536.69;;;8.90;84.69
33781;BME280;20097;50.832;19.100;2023-05-12T01:55:56;98531.94;;;8.85;84.62
33781;BME280;20097;50.832;19.100;2023-05-12T02:01:03;98537.31;;;8.84;84.86
33781;BME280;20097;50.832;19.100;2023-05-12T02:06:08;98533.53;;;8.78;85.26
33781;BME280;20097;50.832;19.100;2023-05-12T02:11:12;98535.81;;;8.73;85.32
33781;BME280;20097;50.832;19.100;2023-05-12T02:16:18;98537.09;;;8.69;86.21
33781;BME280;20097;50.832;19.100;2023-05-12T02:21:22;98538.06;;;8.68;85.85
33781;BME280;20097;50.832;19.100;2023-05-12T02:26:28;98527.13;;;8.57;87.13
33781;BME280;20097;50.832;19.100;2023-05-12T02:31:34;98526.13;;;8.58;86.91
33781;BME280;20097;50.832;19.100;2023-05-12T02:36:47;98522.06;;;8.55;86.46
33781;BME280;20097;50.832;19.100;2023-05-12T02:41:52;98535.41;;;8.52;87.30
33781;BME280;20097;50.832;19.100;2023-05-12T02:46:58;98526.78;;;8.52;87.25
33781;BME280;20097;50.832;19.100;2023-05-12T02:52:02;98524.78;;;8.46;88.04
33781;BME280;20097;50.832;19.100;2023-05-12T02:57:06;98525.22;;;8.41;89.38
33781;BME280;20097;50.832;19.100;2023-05-12T03:02:14;98528.00;;;8.40;89.58
33781;BME280;20097;50.832;19.100;2023-05-12T03:07:18;98533.66;;;8.35;89.89
33781;BME280;20097;50.832;19.100;2023-05-12T03:12:22;98539.03;;;8.33;89.96
33781;BME280;20097;50.832;19.100;2023-05-12T03:17:28;98533.78;;;8.25;91.69
33781;BME280;20097;50.832;19.100;2023-05-12T03:22:32;98533.94;;;8.24;91.78
33781;BME280;20097;50.832;19.100;2023-05-12T03:27:37;98535.69;;;8.23;92.25
33781;BME280;20097;50.832;19.100;2023-05-12T03:32:43;98537.47;;;8.23;93.14
33781;BME280;20097;50.832;19.100;2023-05-12T03:37:48;98535.53;;;8.25;92.93
33781;BME280;20097;50.832;19.100;2023-05-12T03:42:52;98536.66;;;8.22;93.55
33781;BME280;20097;50.832;19.100;2023-05-12T03:47:58;98531.69;;;8.29;93.43
33781;BME280;20097;50.832;19.100;2023-05-12T03:53:02;98540.78;;;8.33;92.75
33781;BME280;20097;50.832;19.100;2023-05-12T03:58:07;98544.25;;;8.42;91.66
33781;BME280;20097;50.832;19.100;2023-05-12T04:03:12;98544.47;;;8.48;91.26
33781;BME280;20097;50.832;19.100;2023-05-12T04:08:17;98545.81;;;8.52;91.37
33781;BME280;20097;50.832;19.100;2023-05-12T04:13:21;98555.94;;;8.63;90.09
33781;BME280;20097;50.832;19.100;2023-05-12T04:18:27;98556.47;;;8.75;90.11
33781;BME280;20097;50.832;19.100;2023-05-12T04:23:32;98557.50;;;8.90;89.63
33781;BME280;20097;50.832;19.100;2023-05-12T04:28:36;98561.47;;;9.02;88.66
33781;BME280;20097;50.832;19.100;2023-05-12T04:33:41;98564.09;;;9.10;87.83
33781;BME280;20097;50.832;19.100;2023-05-12T04:38:48;98564.81;;;9.28;87.75
33781;BME280;20097;50.832;19.100;2023-05-12T04:43:53;98565.34;;;9.39;86.95
33781;BME280;20097;50.832;19.100;2023-05-12T04:49:02;98568.97;;;9.54;85.35
33781;BME280;20097;50.832;19.100;2023-05-12T04:54:08;98574.66;;;9.66;84.34
33781;BME280;20097;50.832;19.100;2023-05-12T04:59:12;98570.44;;;9.81;83.59
33781;BME280;20097;50.832;19.100;2023-05-12T05:04:21;98587.56;;;10.00;82.50
33781;BME280;20097;50.832;19.100;2023-05-12T05:09:25;98583.50;;;10.13;84.43
33781;BME280;20097;50.832;19.100;2023-05-12T05:14:29;98578.75;;;10.33;83.70
33781;BME280;20097;50.832;19.100;2023-05-12T05:19:35;98577.75;;;10.58;82.12
33781;BME280;20097;50.832;19.100;2023-05-12T05:24:54;98584.75;;;10.65;80.17
33781;BME280;20097;50.832;19.100;2023-05-12T05:29:58;98587.97;;;10.83;78.97
33781;BME280;20097;50.832;19.100;2023-05-12T05:35:06;98584.97;;;11.02;78.44
33781;BME280;20097;50.832;19.100;2023-05-12T05:40:14;98586.53;;;11.20;77.84
33781;BME280;20097;50.832;19.100;2023-05-12T05:45:19;98583.00;;;11.43;78.13
33781;BME280;20097;50.832;19.100;2023-05-12T05:50:29;98586.13;;;11.61;76.46
33781;BME280;20097;50.832;19.100;2023-05-12T05:55:33;98587.31;;;11.59;75.66
33781;BME280;20097;50.832;19.100;2023-05-12T06:00:38;98593.09;;;11.77;74.68
33781;BME280;20097;50.832;19.100;2023-05-12T06:05:43;98588.50;;;12.01;75.03
33781;BME280;20097;50.832;19.100;2023-05-12T06:10:48;98596.97;;;12.03;73.67
33781;BME280;20097;50.832;19.100;2023-05-12T06:15:53;98606.00;;;12.23;74.18
33781;BME280;20097;50.832;19.100;2023-05-12T06:20:59;98607.81;;;12.60;74.19
33781;BME280;20097;50.832;19.100;2023-05-12T06:26:04;98610.44;;;12.75;72.31
33781;BME280;20097;50.832;19.100;2023-05-12T06:31:09;98605.91;;;12.83;71.63
33781;BME280;20097;50.832;19.100;2023-05-12T06:36:15;98611.72;;;13.08;71.74
33781;BME280;20097;50.832;19.100;2023-05-12T06:41:19;98619.75;;;13.21;69.92
33781;BME280;20097;50.832;19.100;2023-05-12T06:46:23;98613.53;;;13.36;69.74
33781;BME280;20097;50.832;19.100;2023-05-12T06:51:29;98613.88;;;13.33;69.58
33781;BME280;20097;50.832;19.100;2023-05-12T06:56:34;98619.88;;;13.63;69.86
33781;BME280;20097;50.832;19.100;2023-05-12T07:01:38;98622.81;;;13.74;69.66
33781;BME280;20097;50.832;19.100;2023-05-12T07:06:44;98628.97;;;14.03;68.11
33781;BME280;20097;50.832;19.100;2023-05-12T07:11:48;98625.72;;;14.22;68.77
33781;BME280;20097;50.832;19.100;2023-05-12T07:16:52;98626.19;;;14.25;67.52
33781;BME280;20097;50.832;19.100;2023-05-12T07:21:58;98630.06;;;14.50;66.73
33781;BME280;20097;50.832;19.100;2023-05-12T07:27:03;98629.97;;;14.65;65.53
33781;BME280;20097;50.832;19.100;2023-05-12T07:32:07;98626.81;;;14.76;64.95
33781;BME280;20097;50.832;19.100;2023-05-12T07:37:14;98631.81;;;14.98;64.82
33781;BME280;20097;50.832;19.100;2023-05-12T07:42:18;98631.09;;;15.18;64.77
33781;BME280;20097;50.832;19.100;2023-05-12T07:47:24;98640.41;;;15.48;63.54
33781;BME280;20097;50.832;19.100;2023-05-12T07:52:32;98637.75;;;15.48;61.41
33781;BME280;20097;50.832;19.100;2023-05-12T07:57:36;98644.50;;;15.63;60.04
33781;BME280;20097;50.832;19.100;2023-05-12T08:02:41;98644.34;;;15.78;59.00
33781;BME280;20097;50.832;19.100;2023-05-12T08:07:47;98639.75;;;16.06;59.35
33781;BME280;20097;50.832;19.100;2023-05-12T08:12:51;98643.84;;;16.28;56.57
33781;BME280;20097;50.832;19.100;2023-05-12T08:17:55;98630.47;;;16.42;57.77
33781;BME280;20097;50.832;19.100;2023-05-12T08:23:00;98640.25;;;16.62;57.52
33781;BME280;20097;50.832;19.100;2023-05-12T08:28:04;98635.16;;;16.86;57.15
33781;BME280;20097;50.832;19.100;2023-05-12T08:33:08;98640.78;;;17.09;56.13
33781;BME280;20097;50.832;19.100;2023-05-12T08:38:14;98641.38;;;17.18;56.21
33781;BME280;20097;50.832;19.100;2023-05-12T08:43:25;98656.97;;;17.32;53.58
33781;BME280;20097;50.832;19.100;2023-05-12T08:48:35;98654.72;;;17.42;52.73
33781;BME280;20097;50.832;19.100;2023-05-12T08:53:42;98656.31;;;17.56;53.28
33781;BME280;20097;50.832;19.100;2023-05-12T08:58:47;98652.19;;;17.73;53.51
33781;BME280;20097;50.832;19.100;2023-05-12T09:03:52;98664.81;;;18.03;53.59
33781;BME280;20097;50.832;19.100;2023-05-12T09:08:57;98653.94;;;17.86;52.07
33781;BME280;20097;50.832;19.100;2023-05-12T09:14:03;98656.44;;;18.12;52.25
33781;BME280;20097;50.832;19.100;2023-05-12T09:19:08;98652.28;;;18.29;52.10
33781;BME280;20097;50.832;19.100;2023-05-12T09:24:13;98653.19;;;18.48;51.71
33781;BME280;20097;50.832;19.100;2023-05-12T09:29:18;98663.88;;;18.59;49.56
33781;BME280;20097;50.832;19.100;2023-05-12T09:34:34;98658.25;;;18.49;49.11
33781;BME280;20097;50.832;19.100;2023-05-12T09:39:41;98663.44;;;18.87;50.07
33781;BME280;20097;50.832;19.100;2023-05-12T09:44:50;98665.06;;;18.88;49.21
33781;BME280;20097;50.832;19.100;2023-05-12T09:49:54;98661.50;;;18.76;48.60
33781;BME280;20097;50.832;19.100;2023-05-12T09:55:09;98671.69;;;18.97;48.21
33781;BME280;20097;50.832;19.100;2023-05-12T10:00:14;98663.22;;;19.31;48.87
33781;BME280;20097;50.832;19.100;2023-05-12T10:05:45;98666.97;;;19.60;47.88
33781;BME280;20097;50.832;19.100;2023-05-12T10:10:52;98662.34;;;19.37;47.33
33781;BME280;20097;50.832;19.100;2023-05-12T10:15:56;98653.06;;;19.28;46.99
33781;BME280;20097;50.832;19.100;2023-05-12T10:21:01;98662.41;;;19.31;47.72
33781;BME280;20097;50.832;19.100;2023-05-12T10:26:07;98655.88;;;19.51;46.31
33781;BME280;20097;50.832;19.100;2023-05-12T10:31:13;98649.84;;;19.62;46.54
33781;BME280;20097;50.832;19.100;2023-05-12T10:36:18;98648.84;;;19.75;47.32
33781;BME280;20097;50.832;19.100;2023-05-12T10:41:30;98652.38;;;19.87;46.35
33781;BME280;20097;50.832;19.100;2023-05-12T10:46:35;98646.56;;;20.26;45.77
33781;BME280;20097;50.832;19.100;2023-05-12T10:51:46;98644.50;;;20.39;45.68
33781;BME280;20097;50.832;19.100;2023-05-12T10:56:56;98656.91;;;20.92;44.63
33781;BME280;20097;50.832;19.100;2023-05-12T11:02:02;98664.03;;;20.57;43.09
33781;BME280;20097;50.832;19.100;2023-05-12T11:07:09;98666.66;;;20.98;43.55
33781;BME280;20097;50.832;19.100;2023-05-12T11:12:17;98662.34;;;20.21;44.01
33781;BME280;20097;50.832;19.100;2023-05-12T11:17:21;98663.94;;;20.75;45.01
33781;BME280;20097;50.832;19.100;2023-05-12T11:22:25;98665.03;;;20.97;43.21
33781;BME280;20097;50.832;19.100;2023-05-12T11:27:31;98674.09;;;20.78;42.21
33781;BME280;20097;50.832;19.100;2023-05-12T11:32:35;98678.28;;;20.32;43.27
33781;BME280;20097;50.832;19.100;2023-05-12T11:37:40;98679.84;;;20.22;44.26
33781;BME280;20097;50.832;19.100;2023-05-12T11:42:48;98683.00;;;21.52;43.34
33781;BME280;20097;50.832;19.100;2023-05-12T11:48:04;98687.44;;;21.87;41.76
33781;BME280;20097;50.832;19.100;2023-05-12T11:53:10;98695.78;;;22.18;40.56
33781;BME280;20097;50.832;19.100;2023-05-12T11:58:21;98693.38;;;21.77;40.26
33781;BME280;20097;50.832;19.100;2023-05-12T12:03:27;98689.22;;;21.58;39.99
33781;BME280;20097;50.832;19.100;2023-05-12T12:08:31;98685.78;;;21.97;40.43
33781;BME280;20097;50.832;19.100;2023-05-12T12:13:37;98691.50;;;22.17;40.30
33781;BME280;20097;50.832;19.100;2023-05-12T12:18:41;98700.91;;;20.17;40.63
33781;BME280;20097;50.832;19.100;2023-05-12T12:23:45;98697.34;;;19.93;40.81
33781;BME280;20097;50.832;19.100;2023-05-12T12:28:55;98695.00;;;21.55;39.50
33781;BME280;20097;50.832;19.100;2023-05-12T12:33:59;98697.47;;;21.96;39.24
33781;BME280;20097;50.832;19.100;2023-05-12T12:39:04;98695.72;;;22.74;38.66
33781;BME280;20097;50.832;19.100;2023-05-12T12:44:09;98702.16;;;23.45;37.38
33781;BME280;20097;50.832;19.100;2023-05-12T12:49:14;98700.81;;;22.76;35.54
33781;BME280;20097;50.832;19.100;2023-05-12T12:54:18;98691.34;;;22.85;38.58
33781;BME280;20097;50.832;19.100;2023-05-12T12:59:23;98695.72;;;22.74;36.32
33781;BME280;20097;50.832;19.100;2023-05-12T13:04:28;98703.63;;;23.02;37.42
33781;BME280;20097;50.832;19.100;2023-05-12T13:09:32;98696.25;;;21.64;38.37
33781;BME280;20097;50.832;19.100;2023-05-12T13:14:38;98693.88;;;21.39;38.65
33781;BME280;20097;50.832;19.100;2023-05-12T13:19:42;98681.00;;;20.79;40.06
33781;BME280;20097;50.832;19.100;2023-05-12T13:24:46;98680.00;;;20.80;39.92
33781;BME280;20097;50.832;19.100;2023-05-12T13:29:52;98690.75;;;20.96;38.81
33781;BME280;20097;50.832;19.100;2023-05-12T13:34:56;98688.56;;;21.91;37.21
33781;BME280;20097;50.832;19.100;2023-05-12T13:40:00;98696.25;;;23.86;37.61
33781;BME280;20097;50.832;19.100;2023-05-12T13:45:07;98695.06;;;23.00;35.61
33781;BME280;20097;50.832;19.100;2023-05-12T13:50:12;98688.16;;;22.66;36.67
33781;BME280;20097;50.832;19.100;2023-05-12T13:55:16;98700.06;;;22.80;34.67
33781;BME280;20097;50.832;19.100;2023-05-12T14:00:25;98685.44;;;21.08;36.77
33781;BME280;20097;50.832;19.100;2023-05-12T14:05:31;98685.81;;;22.42;35.88
33781;BME280;20097;50.832;19.100;2023-05-12T14:10:35;98699.06;;;21.23;36.71
33781;BME280;20097;50.832;19.100;2023-05-12T14:15:41;98698.50;;;22.23;35.64
33781;BME280;20097;50.832;19.100;2023-05-12T14:20:51;98692.34;;;22.95;35.08
33781;BME280;20097;50.832;19.100;2023-05-12T14:25:55;98687.59;;;21.57;34.67
33781;BME280;20097;50.832;19.100;2023-05-12T14:31:02;98693.97;;;21.44;36.27
33781;BME280;20097;50.832;19.100;2023-05-12T14:36:07;98690.25;;;21.57;36.07
33781;BME280;20097;50.832;19.100;2023-05-12T14:41:11;98687.84;;;21.55;35.29
33781;BME280;20097;50.832;19.100;2023-05-12T14:46:16;98692.84;;;20.53;36.86
33781;BME280;20097;50.832;19.100;2023-05-12T14:51:20;98687.91;;;20.57;36.93
33781;BME280;20097;50.832;19.100;2023-05-12T14:56:24;98700.13;;;20.16;36.51
33781;BME280;20097;50.832;19.100;2023-05-12T15:01:30;98695.41;;;20.60;36.14
33781;BME280;20097;50.832;19.100;2023-05-12T15:06:34;98697.88;;;21.77;34.72
33781;BME280;20097;50.832;19.100;2023-05-12T15:11:39;98705.38;;;22.19;34.41
33781;BME280;20097;50.832;19.100;2023-05-12T15:16:47;98701.22;;;20.80;35.82
33781;BME280;20097;50.832;19.100;2023-05-12T15:21:51;98692.25;;;20.51;36.69
33781;BME280;20097;50.832;19.100;2023-05-12T15:26:55;98692.28;;;20.21;37.60
33781;BME280;20097;50.832;19.100;2023-05-12T15:32:01;98696.16;;;20.78;37.38
33781;BME280;20097;50.832;19.100;2023-05-12T15:37:05;98704.13;;;20.37;37.83
33781;BME280;20097;50.832;19.100;2023-05-12T15:42:09;98691.50;;;20.21;38.43
33781;BME280;20097;50.832;19.100;2023-05-12T15:47:17;98695.22;;;19.48;38.37
33781;BME280;20097;50.832;19.100;2023-05-12T15:52:23;98709.94;;;19.62;39.97
33781;BME280;20097;50.832;19.100;2023-05-12T15:57:29;98699.09;;;19.27;39.86
33781;BME280;20097;50.832;19.100;2023-05-12T16:02:35;98690.44;;;18.95;40.23
33781;BME280;20097;50.832;19.100;2023-05-12T16:07:39;98684.00;;;18.85;40.33
33781;BME280;20097;50.832;19.100;2023-05-12T16:12:44;98675.16;;;18.73;40.68
33781;BME280;20097;50.832;19.100;2023-05-12T16:17:50;98674.94;;;18.74;41.07
33781;BME280;20097;50.832;19.100;2023-05-12T16:22:55;98683.03;;;18.55;40.51
33781;BME280;20097;50.832;19.100;2023-05-12T16:27:59;98688.84;;;18.39;40.66
33781;BME280;20097;50.832;19.100;2023-05-12T16:33:04;98698.59;;;18.32;41.65
33781;BME280;20097;50.832;19.100;2023-05-12T16:38:09;98701.22;;;18.01;41.46
33781;BME280;20097;50.832;19.100;2023-05-12T16:43:15;98714.53;;;17.74;41.91
33781;BME280;20097;50.832;19.100;2023-05-12T16:48:20;98705.84;;;17.61;42.56
33781;BME280;20097;50.832;19.100;2023-05-12T16:53:24;98704.03;;;17.55;42.37
33781;BME280;20097;50.832;19.100;2023-05-12T16:58:30;98696.94;;;17.42;43.17
33781;BME280;20097;50.832;19.100;2023-05-12T17:03:36;98702.25;;;17.29;42.93
33781;BME280;20097;50.832;19.100;2023-05-12T17:08:40;98701.03;;;17.32;43.28
33781;BME280;20097;50.832;19.100;2023-05-12T17:13:45;98701.28;;;17.11;43.99
33781;BME280;20097;50.832;19.100;2023-05-12T17:18:51;98714.25;;;16.93;44.70
33781;BME280;20097;50.832;19.100;2023-05-12T17:23:58;98707.34;;;16.79;44.74
33781;BME280;20097;50.832;19.100;2023-05-12T17:29:02;98712.41;;;16.67;44.83
33781;BME280;20097;50.832;19.100;2023-05-12T17:34:08;98705.72;;;16.52;45.20
33781;BME280;20097;50.832;19.100;2023-05-12T17:39:12;98725.31;;;16.42;45.50
33781;BME280;20097;50.832;19.100;2023-05-12T17:44:17;98720.63;;;16.25;45.90
33781;BME280;20097;50.832;19.100;2023-05-12T17:49:23;98726.88;;;16.11;46.47
33781;BME280;20097;50.832;19.100;2023-05-12T17:54:27;98724.19;;;15.98;46.57
33781;BME280;20097;50.832;19.100;2023-05-12T17:59:31;98724.94;;;15.79;47.48
33781;BME280;20097;50.832;19.100;2023-05-12T18:04:37;98728.31;;;15.66;47.43
33781;BME280;20097;50.832;19.100;2023-05-12T18:09:41;98720.50;;;15.45;47.81
33781;BME280;20097;50.832;19.100;2023-05-12T18:14:45;98721.22;;;15.33;47.93
33781;BME280;20097;50.832;19.100;2023-05-12T18:19:51;98725.75;;;15.18;48.47
33781;BME280;20097;50.832;19.100;2023-05-12T18:24:55;98729.31;;;15.03;48.77
33781;BME280;20097;50.832;19.100;2023-05-12T18:29:59;98723.91;;;14.84;49.39
33781;BME280;20097;50.832;19.100;2023-05-12T18:35:06;98728.72;;;14.59;50.39
33781;BME280;20097;50.832;19.100;2023-05-12T18:40:11;98732.81;;;14.41;50.87
33781;BME280;20097;50.832;19.100;2023-05-12T18:45:15;98733.03;;;14.25;51.30
33781;BME280;20097;50.832;19.100;2023-05-12T18:50:21;98734.22;;;14.08;52.47
33781;BME280;20097;50.832;19.100;2023-05-12T18:55:25;98733.63;;;13.91;52.80
33781;BME280;20097;50.832;19.100;2023-05-12T19:00:29;98731.75;;;13.85;52.50
33781;BME280;20097;50.832;19.100;2023-05-12T19:05:36;98732.22;;;13.74;52.86
33781;BME280;20097;50.832;19.100;2023-05-12T19:10:44;98731.03;;;13.62;53.18
33781;BME280;20097;50.832;19.100;2023-05-12T19:15:49;98728.59;;;13.46;53.99
33781;BME280;20097;50.832;19.100;2023-05-12T19:20:54;98736.19;;;13.41;54.21
33781;BME280;20097;50.832;19.100;2023-05-12T19:25:58;98730.41;;;13.16;55.79
33781;BME280;20097;50.832;19.100;2023-05-12T19:31:02;98733.63;;;13.04;56.02
33781;BME280;20097;50.832;19.100;2023-05-12T19:36:08;98740.25;;;12.92;57.22
33781;BME280;20097;50.832;19.100;2023-05-12T19:41:13;98729.56;;;12.79;57.89
33781;BME280;20097;50.832;19.100;2023-05-12T19:46:17;98733.78;;;12.65;57.90
33781;BME280;20097;50.832;19.100;2023-05-12T19:51:22;98731.06;;;12.59;57.95
33781;BME280;20097;50.832;19.100;2023-05-12T19:56:27;98739.06;;;12.57;57.58
33781;BME280;20097;50.832;19.100;2023-05-12T20:01:32;98730.22;;;12.58;57.05
33781;BME280;20097;50.832;19.100;2023-05-12T20:06:38;98743.84;;;12.54;56.99
33781;BME280;20097;50.832;19.100;2023-05-12T20:11:42;98746.78;;;12.51;57.42
33781;BME280;20097;50.832;19.100;2023-05-12T20:16:46;98736.56;;;12.41;57.46
33781;BME280;20097;50.832;19.100;2023-05-12T20:21:52;98747.09;;;12.33;57.53
33781;BME280;20097;50.832;19.100;2023-05-12T20:26:56;98744.34;;;12.26;57.47
33781;BME280;20097;50.832;19.100;2023-05-12T20:32:00;98739.16;;;12.18;57.92
33781;BME280;20097;50.832;19.100;2023-05-12T20:37:06;98739.56;;;12.07;58.10
33781;BME280;20097;50.832;19.100;2023-05-12T20:42:10;98740.59;;;11.98;58.36
33781;BME280;20097;50.832;19.100;2023-05-12T20:47:14;98739.00;;;11.89;58.77
33781;BME280;20097;50.832;19.100;2023-05-12T20:52:19;98742.47;;;11.82;59.00
33781;BME280;20097;50.832;19.100;2023-05-12T20:57:25;98743.28;;;11.82;58.59
33781;BME280;20097;50.832;19.100;2023-05-12T21:02:30;98739.25;;;11.72;59.17
33781;BME280;20097;50.832;19.100;2023-05-12T21:07:35;98736.81;;;11.62;59.38
33781;BME280;20097;50.832;19.100;2023-05-12T21:12:39;98742.41;;;11.51;59.89
33781;BME280;20097;50.832;19.100;2023-05-12T21:17:44;98743.41;;;11.42;60.34
33781;BME280;20097;50.832;19.100;2023-05-12T21:22:49;98742.56;;;11.42;59.72
33781;BME280;20097;50.832;19.100;2023-05-12T21:27:53;98747.03;;;11.33;60.14
33781;BME280;20097;50.832;19.100;2023-05-12T21:32:57;98745.38;;;11.32;59.86
33781;BME280;20097;50.832;19.100;2023-05-12T21:38:03;98742.13;;;11.22;61.03
33781;BME280;20097;50.832;19.100;2023-05-12T21:43:08;98738.75;;;11.14;60.87
33781;BME280;20097;50.832;19.100;2023-05-12T21:48:12;98741.69;;;11.11;60.65
33781;BME280;20097;50.832;19.100;2023-05-12T21:53:18;98739.88;;;11.03;61.05
33781;BME280;20097;50.832;19.100;2023-05-12T21:58:22;98745.44;;;11.00;60.80
33781;BME280;20097;50.832;19.100;2023-05-12T22:03:26;98743.19;;;10.89;61.53
33781;BME280;20097;50.832;19.100;2023-05-12T22:08:31;98741.22;;;10.83;62.26
33781;BME280;20097;50.832;19.100;2023-05-12T22:13:35;98741.53;;;10.80;61.75
33781;BME280;20097;50.832;19.100;2023-05-12T22:18:39;98742.19;;;10.74;62.45
33781;BME280;20097;50.832;19.100;2023-05-12T22:23:46;98735.53;;;10.71;62.58
33781;BME280;20097;50.832;19.100;2023-05-12T22:28:50;98733.38;;;10.67;62.14
33781;BME280;20097;50.832;19.100;2023-05-12T22:33:54;98736.97;;;10.66;61.88
33781;BME280;20097;50.832;19.100;2023-05-12T22:38:59;98738.31;;;10.62;62.55
33781;BME280;20097;50.832;19.100;2023-05-12T22:44:03;98734.38;;;10.58;62.81
33781;BME280;20097;50.832;19.100;2023-05-12T22:49:08;98733.38;;;10.51;62.93
33781;BME280;20097;50.832;19.100;2023-05-12T22:54:13;98743.66;;;10.44;63.12
33781;BME280;20097;50.832;19.100;2023-05-12T22:59:17;98732.41;;;10.36;63.83
33781;BME280;20097;50.832;19.100;2023-05-12T23:04:21;98737.63;;;10.28;64.54
33781;BME280;20097;50.832;19.100;2023-05-12T23:09:27;98738.88;;;10.16;65.39
33781;BME280;20097;50.832;19.100;2023-05-12T23:14:31;98736.59;;;10.13;65.54
33781;BME280;20097;50.832;19.100;2023-05-12T23:19:35;98738.19;;;10.06;66.12
33781;BME280;20097;50.832;19.100;2023-05-12T23:24:41;98738.31;;;9.96;67.19
33781;BME280;20097;50.832;19.100;2023-05-12T23:29:46;98737.16;;;9.91;67.18
33781;BME280;20097;50.832;19.100;2023-05-12T23:34:50;98741.69;;;9.81;68.08
33781;BME280;20097;50.832;19.100;2023-05-12T23:39:55;98731.56;;;9.77;68.44
33781;BME280;20097;50.832;19.100;2023-05-12T23:44:59;98733.81;;;9.72;68.23
33781;BME280;20097;50.832;19.100;2023-05-12T23:50:04;98727.97;;;9.70;68.64
33781;BME280;20097;50.832;19.100;2023-05-12T23:55:10;98729.25;;;9.66;68.93
